Artesia Camp, New Mexico
Current Conditions -  °F | °C
As of 12:58 PM on Saturday 25 Oct 2014 (Local Time) from KHMN Reporting Station
Clear Clear  
Wind Chill: 78°   Ceiling: Unl
Heat Index: 78°   Visibility: 10mi
Dew Point: 46°   Wind: 3mph
Humidity: 32%   Direction: 170°S
Pressure: 30.21"   Gusts: NA
Location:  32.7847°N, 105.644°W
Report Text: KHMN 251858Z AUTO 17003KT 10SM CLR 26/08 A3021 RMK AO2 SLP173 T02570078 $
Loading
Personal Weather Stations






























Interactive Weather Map New forecast layout! Learn more

10-Day Weather Forecast

Advertisements
Track Severe Weather on mobile